Flight Track Log - Related Links

Times and Time Zones

All times are in EDT time to prevent confusion due to time zone crossing. See the ACA1119 flight status page for this flight to view local times or setup timezone preferences in your user account.

Time Position Orientation Groundspeed Altitude Reporting Facility
EDT Latitude Longitude Course Direction KTS MPH feet Rate Location/Type
Mon 09:53:32 PM 43.7632 -79.8120 141° Southeast  Level FlightAware Approximate
Mon 09:53:52 PM 43.6500 -79.6833 306° West 150 173 2,500  Level Toronto Center
Mon 09:58:52 PM 43.8333 -80.0333 313° West 330 380 13,300 1,875 Climbing Toronto Center
Mon 10:05:52 PM 44.3333 -80.8000 310° West 400 460 25,000 1,392 Climbing Toronto Center
Mon 10:10:52 PM 44.7000 -81.4167 313° West 410 472 30,000 833 Climbing Toronto Center
Mon 10:11:52 PM 44.7667 -81.5167 311° West 410 472 30,000  Level Toronto Center
Mon 10:12:52 PM 44.8500 -81.6500 313° West 410 472 30,000  Level Toronto Center
Mon 10:13:52 PM 44.9167 -81.7500 308° West 410 472 30,000  Level Toronto Center
Mon 10:14:52 PM 45.0000 -81.9000 305° West 400 460 30,000  Level Toronto Center
Mon 10:15:52 PM 45.0500 -82.0000 312° West 400 460 30,000  Level Toronto Center
Mon 10:16:52 PM 45.1333 -82.1333 313° West 400 460 30,000  Level Toronto Center
Mon 10:17:52 PM 45.2000 -82.2333 315° West 400 460 30,000  Level Toronto Center
Mon 10:18:52 PM 45.2833 -82.3500 305° West 400 460 30,000  Level Toronto Center
Mon 10:19:52 PM 45.3500 -82.4833 316° Northwest 400 460 30,000  Level Toronto Center
Mon 10:20:52 PM 45.4333 -82.6000 301° West 400 460 30,000  Level Toronto Center
Mon 10:21:52 PM 45.4833 -82.7167 312° West 400 460 30,000  Level Toronto Center
Mon 10:22:52 PM 45.5667 -82.8500 309° West 400 460 30,000  Level Toronto Center
Mon 10:23:52 PM 45.6333 -82.9667 306° West 390 449 30,000  Level Toronto Center
Mon 10:24:52 PM 45.7000 -83.1000 316° Northwest 400 460 30,000  Level Toronto Center
Mon 10:25:52 PM 45.7833 -83.2167 306° West 400 460 30,000  Level Toronto Center
Mon 10:26:52 PM 45.8333 -83.3167 312° West 390 449 30,000  Level Toronto Center
Mon 10:27:52 PM 45.9167 -83.4500 309° West 390 449 30,000  Level Toronto Center
Mon 10:28:52 PM 45.9833 -83.5667 308° West 390 449 30,000  Level Toronto Center
Mon 10:30:52 PM 46.1167 -83.8167 314° West 390 449 30,000  Level Toronto Center
Mon 10:31:52 PM 46.1833 -83.9167 312° West 390 449 30,000  Level Toronto Center
Mon 10:32:52 PM 46.2667 -84.0500 310° West 390 449 30,000  Level Toronto Center
Mon 10:33:52 PM 46.3333 -84.1667 299° West 390 449 30,000  Level Toronto Center
Mon 10:34:52 PM 46.3833 -84.3000 310° West 390 449 30,000  Level Toronto Center
Mon 10:35:52 PM 46.4500 -84.4167 299° West 390 449 30,000  Level Toronto Center
Mon 10:36:52 PM 46.5000 -84.5500 296° West 390 449 30,000  Level Toronto Center
Mon 10:37:52 PM 46.5500 -84.7000 299° West 380 437 30,000  Level Toronto Center
Mon 10:38:52 PM 46.6000 -84.8333 303° West 380 437 30,000  Level Toronto Center
Mon 10:39:52 PM 46.6667 -84.9833 293° West 380 437 30,000  Level Toronto Center
Mon 10:40:52 PM 46.7000 -85.1000 306° West 380 437 30,000  Level Toronto Center
Mon 10:41:40 PM 46.7333 -85.1667 306° West 390 449 30,000  Level Winnipeg Center
Mon 10:42:40 PM 46.8000 -85.3000 296° West 390 449 30,000  Level Winnipeg Center
Mon 10:43:40 PM 46.8500 -85.4500 299° West 390 449 30,000  Level Winnipeg Center
Mon 10:44:40 PM 46.9000 -85.5833 290° West 390 449 30,000  Level Winnipeg Center
Mon 10:45:40 PM 46.9333 -85.7167 299° West 390 449 30,000  Level Winnipeg Center
Mon 10:46:40 PM 46.9833 -85.8500 306° West 380 437 30,000  Level Winnipeg Center
Mon 10:47:40 PM 47.0500 -85.9833 296° West 380 437 30,000  Level Winnipeg Center
Mon 10:48:40 PM 47.1000 -86.1333 299° West 380 437 30,000  Level Winnipeg Center
Mon 10:49:40 PM 47.1500 -86.2667 299° West 380 437 30,000  Level Winnipeg Center
Mon 10:50:40 PM 47.2000 -86.4000 299° West 380 437 30,000  Level Winnipeg Center
Mon 10:51:40 PM 47.2500 -86.5333 288° West 380 437 30,000  Level Winnipeg Center
Mon 10:52:40 PM 47.2833 -86.6833 306° West 380 437 30,000  Level Winnipeg Center
Mon 10:53:40 PM 47.3500 -86.8167 299° West 370 426 30,000  Level Winnipeg Center
Mon 10:54:40 PM 47.4000 -86.9500 302° West 370 426 30,000  Level Winnipeg Center
Mon 10:55:40 PM 47.4500 -87.0667 288° West 370 426 30,000  Level Winnipeg Center
Mon 10:56:40 PM 47.4833 -87.2167 299° West 370 426 30,000  Level Winnipeg Center
Mon 10:57:40 PM 47.5333 -87.3500 299° West 370 426 30,000  Level Winnipeg Center
Mon 10:58:40 PM 47.5833 -87.4833 303° West 370 426 30,000  Level Winnipeg Center
Mon 10:59:40 PM 47.6500 -87.6333 293° West 370 426 30,000  Level Winnipeg Center
Mon 11:00:40 PM 47.6833 -87.7500 299° West 370 426 30,000  Level Winnipeg Center
Mon 11:01:40 PM 47.7333 -87.8833 296° West 370 426 30,000  Level Winnipeg Center
Mon 11:02:40 PM 47.7833 -88.0333 293° West 370 426 30,000  Level Winnipeg Center
Mon 11:03:40 PM 47.8167 -88.1500 299° West 370 426 30,000  Level Winnipeg Center
Mon 11:04:40 PM 47.8667 -88.2833 296° West 370 426 30,000  Level Winnipeg Center
Mon 11:05:40 PM 47.9167 -88.4333 291° West 370 426 30,000  Level Winnipeg Center
Mon 11:06:40 PM 47.9500 -88.5667 297° West 370 426 30,000  Level Winnipeg Center
Mon 11:07:40 PM 48.0000 -88.7167 293° West 370 426 30,000  Level Winnipeg Center
Mon 11:08:40 PM 48.0333 -88.8333 307° West 370 426 30,000  Level Winnipeg Center
Mon 11:09:40 PM 48.1000 -88.9667 297° West 370 426 30,000  Level Winnipeg Center
Mon 11:10:40 PM 48.1500 -89.1167 288° West 370 426 30,000  Level Winnipeg Center
Mon 11:11:40 PM 48.1833 -89.2667 303° West 360 414 30,000  Level Winnipeg Center
Mon 11:12:40 PM 48.2333 -89.3833 289° West 360 414 30,000  Level Winnipeg Center
Mon 11:13:40 PM 48.2667 -89.5333 299° West 360 414 30,000  Level Winnipeg Center
Mon 11:14:40 PM 48.3167 -89.6667 291° West 360 414 30,000  Level Winnipeg Center
Mon 11:15:40 PM 48.3500 -89.8000 291° West 360 414 30,000  Level Winnipeg Center
Mon 11:16:40 PM 48.3833 -89.9333 297° West 370 426 30,000  Level Winnipeg Center
Mon 11:17:40 PM 48.4333 -90.0833 289° West 370 426 30,000  Level Winnipeg Center
Mon 11:18:40 PM 48.4667 -90.2333 300° West 370 426 30,000  Level Winnipeg Center
Mon 11:19:40 PM 48.5167 -90.3667 291° West 370 426 30,000  Level Winnipeg Center
Mon 11:20:40 PM 48.5500 -90.5000 297° West 370 426 30,000  Level Winnipeg Center
Mon 11:21:40 PM 48.6000 -90.6500 281° West 360 414 30,000  Level Winnipeg Center
Mon 11:22:40 PM 48.6167 -90.7833 297° West 360 414 30,000  Level Winnipeg Center
Mon 11:23:40 PM 48.6667 -90.9333 289° West 360 414 30,000  Level Winnipeg Center
Mon 11:24:40 PM 48.7000 -91.0833 303° West 370 426 30,000  Level Winnipeg Center
Mon 11:25:40 PM 48.7500 -91.2000 285° West 370 426 30,000  Level Winnipeg Center
Mon 11:26:40 PM 48.7833 -91.3833 303° West 370 426 30,000  Level Winnipeg Center
Mon 11:27:40 PM 48.8333 -91.5000 289° West 360 414 30,000  Level Winnipeg Center
Mon 11:28:40 PM 48.8667 -91.6500 289° West 360 414 30,000  Level Winnipeg Center
Mon 11:29:40 PM 48.9000 -91.8000 294° West 370 426 30,000  Level Winnipeg Center
Mon 11:30:40 PM 48.9333 -91.9167 286° West 370 426 30,000  Level Winnipeg Center
Mon 11:31:40 PM 48.9667 -92.1000 303° West 370 426 30,000  Level Winnipeg Center
Mon 11:32:40 PM 49.0167 -92.2167 289° West 370 426 30,000  Level Winnipeg Center
Mon 11:33:40 PM 49.0500 -92.3667 289° West 370 426 30,000  Level Winnipeg Center
Mon 11:34:40 PM 49.0833 -92.5167 297° West 370 426 30,000 500 Level Winnipeg Center
Mon 11:35:40 PM 49.1333 -92.6667 291° West 360 414 31,000 500 Climbing Winnipeg Center
Mon 11:36:40 PM 49.1667 -92.8000 280° West 340 391 31,000  Level Winnipeg Center
Mon 11:37:40 PM 49.1833 -92.9500 303° West 340 391 31,000  Level Winnipeg Center
Mon 11:38:40 PM 49.2333 -93.0667 291° West 340 391 31,000  Level Winnipeg Center
Mon 11:39:40 PM 49.2667 -93.2000 289° West 340 391 31,000  Level Winnipeg Center
Mon 11:40:40 PM 49.3000 -93.3500 280° West 350 403 31,000  Level Winnipeg Center
Mon 11:41:40 PM 49.3167 -93.5000 300° West 350 403 31,000  Level Winnipeg Center
Mon 11:42:40 PM 49.3667 -93.6333 289° West 350 403 31,000  Level Winnipeg Center
Mon 11:43:40 PM 49.4000 -93.7833 294° West 350 403 31,000  Level Winnipeg Center
Mon 11:44:40 PM 49.4333 -93.9000 280° West 350 403 31,000  Level Winnipeg Center
Mon 11:45:40 PM 49.4500 -94.0500 291° West 350 403 31,000  Level Winnipeg Center
Mon 11:46:40 PM 49.4833 -94.1833 289° West 340 391 31,000  Level Winnipeg Center
Mon 11:47:40 PM 49.5167 -94.3333 281° West 340 391 31,000  Level Winnipeg Center
Mon 11:48:40 PM 49.5333 -94.4667 280° West 340 391 31,000  Level Winnipeg Center
Mon 11:49:40 PM 49.5500 -94.6167 280° West 350 403 31,000  Level Winnipeg Center
Mon 11:50:40 PM 49.5667 -94.7667 287° West 350 403 31,000  Level Winnipeg Center
Mon 11:51:40 PM 49.6000 -94.9333 280° West 350 403 31,000  Level Winnipeg Center
Mon 11:52:40 PM 49.6167 -95.0833 281° West 360 414 31,000  Level Winnipeg Center
Mon 11:53:40 PM 49.6333 -95.2167 289° West 360 414 31,000  Level Winnipeg Center
Mon 11:54:40 PM 49.6667 -95.3667 281° West 350 403 31,000  Level Winnipeg Center
Mon 11:55:40 PM 49.6833 -95.5000 280° West 340 391 31,000  Level Winnipeg Center
Mon 11:56:40 PM 49.7000 -95.6500 280° West 330 380 31,000  Level Winnipeg Center
Mon 11:57:40 PM 49.7167 -95.8000 281° West 340 391 31,000  Level Winnipeg Center
Mon 11:58:40 PM 49.7333 -95.9333 289° West 340 391 31,000 -200 Level Winnipeg Center
Mon 11:59:40 PM 49.7667 -96.0833 280° West 340 391 30,600 -500 Descending Winnipeg Center
Tue 12:00:40 AM 49.7833 -96.2333 281° West 340 391 30,000 -300 Descending Winnipeg Center
Tue 12:01:40 AM 49.8000 -96.3667 281° West 340 391 30,000  Level Winnipeg Center
Tue 12:02:40 AM 49.8167 -96.5000 289° West 340 391 30,000  Level Winnipeg Center
Tue 12:03:40 AM 49.8500 -96.6500 279° West 340 391 30,000  Level Winnipeg Center
Tue 12:04:40 AM 49.8667 -96.8167 283° West 340 391 30,000  Level Winnipeg Center
Tue 12:05:40 AM 49.8833 -96.9333 279° West 340 391 30,000  Level Winnipeg Center
Tue 12:06:40 AM 49.9000 -97.1000 281° West 340 391 30,000  Level Winnipeg Center
Tue 12:07:40 AM 49.9167 -97.2333 280° West 340 391 30,000  Level Winnipeg Center
Tue 12:08:40 AM 49.9333 -97.3833 280° West 340 391 30,000  Level Winnipeg Center
Tue 12:09:40 AM 49.9500 -97.5333 279° West 340 391 30,000  Level Winnipeg Center
Tue 12:10:40 AM 49.9667 -97.7000 283° West 340 391 30,000  Level Winnipeg Center
Tue 12:11:40 AM 49.9833 -97.8167 281° West 340 391 30,000  Level Winnipeg Center
Tue 12:12:40 AM 50.0000 -97.9500 270° West 340 391 30,000  Level Winnipeg Center
Tue 12:13:40 AM 50.0000 -98.1167 270° West 340 391 30,000  Level Winnipeg Center
Tue 12:14:40 AM 50.0000 -98.2667 280° West 340 391 30,000  Level Winnipeg Center
Tue 12:15:40 AM 50.0167 -98.4167 281° West 340 391 30,000  Level Winnipeg Center
Tue 12:16:40 AM 50.0333 -98.5500 279° West 340 391 30,000  Level Winnipeg Center
Tue 12:17:40 AM 50.0500 -98.7167 281° West 340 391 30,000  Level Winnipeg Center
Tue 12:18:40 AM 50.0667 -98.8500 280° West 340 391 30,000  Level Winnipeg Center
Tue 12:19:40 AM 50.0833 -99.0000 281° West 340 391 30,000  Level Winnipeg Center
Tue 12:20:40 AM 50.1000 -99.1333 270° West 340 391 30,000  Level Winnipeg Center
Tue 12:21:40 AM 50.1000 -99.2833 281° West 330 380 30,000  Level Winnipeg Center
Tue 12:22:40 AM 50.1167 -99.4167 279° West 330 380 30,000  Level Winnipeg Center
Tue 12:23:40 AM 50.1333 -99.5833 283° West 320 368 30,000  Level Winnipeg Center
Tue 12:24:40 AM 50.1500 -99.7000 281° West 330 380 30,000  Level Winnipeg Center
Tue 12:25:40 AM 50.1667 -99.8333 261° West 330 380 30,000  Level Winnipeg Center
Tue 12:26:40 AM 50.1500 -100.0000 281° West 330 380 30,000  Level Winnipeg Center
Tue 12:27:40 AM 50.1667 -100.1333 278° West 330 380 30,000  Level Winnipeg Center
Tue 12:38:40 AM 50.3000 -101.7167 275° West 330 380 30,000 -119 Level Winnipeg Center
Tue 12:43:40 AM 50.3333 -102.4167 270° West 340 391 28,100 -633 Descending Winnipeg Center
Tue 12:44:40 AM 50.3333 -102.5833 270° West 350 403 26,200 -1,900 Descending Winnipeg Center
Tue 12:45:40 AM 50.3333 -102.7333 270° West 350 403 24,300 -2,000 Descending Winnipeg Center
Tue 12:46:40 AM 50.3333 -102.9000 257° West 350 403 22,200 -2,000 Descending Winnipeg Center
Tue 12:47:40 AM 50.3167 -103.0167 270° West 350 403 20,300 -2,000 Descending Winnipeg Center
Tue 12:48:40 AM 50.3167 -103.1833 270° West 340 391 18,200 -1,950 Descending Winnipeg Center
Tue 12:49:40 AM 50.3167 -103.3333 270° West 340 391 16,400 -2,000 Descending Winnipeg Center
Tue 12:50:40 AM 50.3167 -103.4667 259° West 330 380 14,200 -1,850 Descending Winnipeg Center
Tue 12:51:40 AM 50.3000 -103.6000 270° West 310 357 12,700 -1,350 Descending Winnipeg Center
Tue 12:52:40 AM 50.3000 -103.7333 285° West 280 322 11,500 -1,250 Descending Winnipeg Center
Tue 12:53:40 AM 50.3167 -103.8333 259° West 270 311 10,200 -1,250 Descending Winnipeg Center
Tue 12:54:40 AM 50.3000 -103.9667 270° West 270 311 9,000 -1,200 Descending Winnipeg Center
Tue 12:55:40 AM 50.3000 -104.0667 257° West 260 299 7,800 -1,150 Descending Winnipeg Center
Tue 12:56:40 AM 50.2833 -104.1833 270° West 260 299 6,700 -1,100 Descending Winnipeg Center
Tue 12:57:40 AM 50.2833 -104.2833 285° West 240 276 5,600 -1,050 Descending Winnipeg Center
Tue 12:58:40 AM 50.3000 -104.3833 255° West 230 265 4,600 -850 Descending Winnipeg Center
Tue 12:59:40 AM 50.2833 -104.4833 308° West 210 242 3,900 -550 Descending Winnipeg Center
Tue 01:00:40 AM 50.3167 -104.5500 327° Northwest 180 207 3,500 -200 Descending Winnipeg Center
Tue 01:01:40 AM 50.3500 -104.5833 327° Northwest 170 196 3,500  Level Winnipeg Center

Login

Don't have an account? Register now (free) for customized features, flight alerts, and more!